< < Back
Terminal Aerodrome Forecast


Current Version              Previous Versions:   1  2  3  4  5  6  7  8  9  

Terminal Aerodrome Forecast

548
FTUS44 KHUN 291141
TAFHSV
TAF
KHSV 291141Z 2912/3012 31005KT P6SM FEW035 BKN120 OVC250
     FM291500 34008KT P6SM VCTS SCT050CB SCT120 SCT250
     FM300000 34005KT P6SM FEW050 SCT120 SCT250
     FM300800 02005KT P6SM SCT035 BKN080 BKN250=



Latest METAR

171
SAUS80 KWBC 292000 RRB
MTRHSV
METAR KHSV 291953Z 30003KT 10SM BKN160 OVC250 28/23 A3001 RMK AO2 SLP153
T02830233


USA.gov is the U.S. government's official web portal to all federal, state and local government web resources and services.